Menu Close Menu
Station Historical Data
Daily Summary for January 13, 2017 Units:  Both    English   Metric
« Previous Day
Next Day »
Daily Weekly Monthly Yearly Custom
  High: Low: Average:
Temperature: 71.6 °F /  22 °C 52.3 °F /  11.3 °C 60.1 °F /  15.6 °C
Dew Point: 60.7 °F /  15.9 °C 49.2 °F /  9.6 °C 54.7 °F /  12.6 °C
Humidity: 93% 65% 83%
Wind Speed: 10.4mph /  16.7km/h - 10.4mph /  16.7km/h
Wind Gust: 10.4mph /  16.7km/h - -
Wind- - ESE
Pressure: 30.53 in /  1033.7 hPa 30.39 in /  1029 hPa -
Precipitation: 0.00 in /  0 mm    
Historical Graphs
 
 
Tabular Data for January 13, 2017
Time Temperature Dew Point Pressure Wind Wind Speed Wind Gust Humidity Rainfall Rate (Hourly) solar Conditions
00:05 54.1 °F /  12.3 °C 50.6 °F /  10.3 °C 30.39in /  1029hPa WNW 10.4mph /  16.7km/h   88% 0.00in /  0mm 0.0 W/m2
00:10 53.9 °F /  12.2 °C 50.4 °F /  10.2 °C 30.39in /  1029hPa WNW 10.4mph /  16.7km/h   88% 0.00in /  0mm 0.0 W/m2
00:15 53.7 °F /  12.1 °C 50.2 °F /  10.1 °C 30.39in /  1029hPa WNW 10.4mph /  16.7km/h   88% 0.00in /  0mm 0.0 W/m2
00:20 53.4 °F /  11.9 °C 49.9 °F /  9.9 °C 30.39in /  1029hPa WNW 10.4mph /  16.7km/h   88% 0.00in /  0mm 0.0 W/m2
00:25 53.2 °F /  11.8 °C 49.7 °F /  9.8 °C 30.39in /  1029hPa WNW 10.4mph /  16.7km/h   88% 0.00in /  0mm 0.0 W/m2
00:30 53.0 °F /  11.7 °C 49.5 °F /  9.7 °C 30.39in /  1029hPa WNW 10.4mph /  16.7km/h   88% 0.00in /  0mm 0.0 W/m2
00:35 52.8 °F /  11.6 °C 49.3 °F /  9.6 °C 30.39in /  1029hPa WNW 10.4mph /  16.7km/h   88% 0.00in /  0mm 0.0 W/m2
00:40 52.9 °F /  11.6 °C 49.7 °F /  9.8 °C 30.39in /  1029hPa NNW 10.4mph /  16.7km/h   89% 0.00in /  0mm 0.0 W/m2
00:45 52.3 °F /  11.3 °C 49.2 °F /  9.6 °C 30.39in /  1029hPa NNW 10.4mph /  16.7km/h   89% 0.00in /  0mm 0.0 W/m2
00:50 52.5 °F /  11.4 °C 49.9 °F /  9.9 °C 30.39in /  1029hPa NNW 10.4mph /  16.7km/h   91% 0.00in /  0mm 0.0 W/m2
00:55 52.5 °F /  11.4 °C 49.9 °F /  9.9 °C 30.39in /  1029hPa NNW 10.4mph /  16.7km/h   91% 0.00in /  0mm 0.0 W/m2
01:00 52.5 °F /  11.4 °C 49.9 °F /  9.9 °C 30.39in /  1029hPa North 10.4mph /  16.7km/h   91% 0.00in /  0mm 0.0 W/m2
01:05 52.5 °F /  11.4 °C 49.9 °F /  9.9 °C 30.39in /  1029hPa North 10.4mph /  16.7km/h   91% 0.00in /  0mm 0.0 W/m2
01:11 52.5 °F /  11.4 °C 49.9 °F /  9.9 °C 30.39in /  1029hPa North 10.4mph /  16.7km/h   91% 0.00in /  0mm 0.0 W/m2
01:16 52.5 °F /  11.4 °C 49.9 °F /  9.9 °C 30.39in /  1029hPa North 10.4mph /  16.7km/h   91% 0.00in /  0mm 0.0 W/m2
01:21 52.5 °F /  11.4 °C 49.9 °F /  9.9 °C 30.39in /  1029hPa North 10.4mph /  16.7km/h   91% 0.00in /  0mm 0.0 W/m2
01:26 52.5 °F /  11.4 °C 49.9 °F /  9.9 °C 30.39in /  1029hPa North 10.4mph /  16.7km/h   91% 0.00in /  0mm 0.0 W/m2
01:31 52.5 °F /  11.4 °C 49.9 °F /  9.9 °C 30.39in /  1029hPa North 10.4mph /  16.7km/h   91% 0.00in /  0mm 0.0 W/m2
01:36 52.5 °F /  11.4 °C 49.9 °F /  9.9 °C 30.39in /  1029hPa North 10.4mph /  16.7km/h   91% 0.00in /  0mm 0.0 W/m2
01:41 52.5 °F /  11.4 °C 49.9 °F /  9.9 °C 30.39in /  1029hPa North 10.4mph /  16.7km/h   91% 0.00in /  0mm 0.0 W/m2
01:46 52.5 °F /  11.4 °C 49.9 °F /  9.9 °C 30.39in /  1029hPa North 10.4mph /  16.7km/h   91% 0.00in /  0mm 0.0 W/m2
01:51 52.5 °F /  11.4 °C 49.9 °F /  9.9 °C 30.39in /  1029hPa North 10.4mph /  16.7km/h   91% 0.00in /  0mm 0.0 W/m2
01:56 52.5 °F /  11.4 °C 49.9 °F /  9.9 °C 30.39in /  1029hPa North 10.4mph /  16.7km/h   91% 0.00in /  0mm 0.0 W/m2
02:02 52.5 °F /  11.4 °C 49.9 °F /  9.9 °C 30.40in /  1029.3hPa North 10.4mph /  16.7km/h   91% 0.00in /  0mm 0.0 W/m2
02:07 52.5 °F /  11.4 °C 49.9 °F /  9.9 °C 30.40in /  1029.3hPa North 10.4mph /  16.7km/h   91% 0.00in /  0mm 0.0 W/m2
02:12 52.5 °F /  11.4 °C 49.9 °F /  9.9 °C 30.40in /  1029.3hPa North 10.4mph /  16.7km/h   91% 0.00in /  0mm 0.0 W/m2
02:17 52.5 °F /  11.4 °C 49.9 °F /  9.9 °C 30.40in /  1029.3hPa North 10.4mph /  16.7km/h   91% 0.00in /  0mm 0.0 W/m2
02:22 52.5 °F /  11.4 °C 49.9 °F /  9.9 °C 30.40in /  1029.3hPa North 10.4mph /  16.7km/h   91% 0.00in /  0mm 0.0 W/m2
02:27 52.5 °F /  11.4 °C 49.9 °F /  9.9 °C 30.40in /  1029.3hPa North 10.4mph /  16.7km/h   91% 0.00in /  0mm 0.0 W/m2
02:32 52.5 °F /  11.4 °C 49.9 °F /  9.9 °C 30.40in /  1029.3hPa North 10.4mph /  16.7km/h   91% 0.00in /  0mm 0.0 W/m2
02:37 52.5 °F /  11.4 °C 49.9 °F /  9.9 °C 30.40in /  1029.3hPa North 10.4mph /  16.7km/h   91% 0.00in /  0mm 0.0 W/m2
02:42 52.5 °F /  11.4 °C 49.9 °F /  9.9 °C 30.40in /  1029.3hPa North 10.4mph /  16.7km/h   91% 0.00in /  0mm 0.0 W/m2
02:43 52.5 °F /  11.4 °C 49.9 °F /  9.9 °C 30.40in /  1029.3hPa North 10.4mph /  16.7km/h   91% 0.00in /  0mm 0.0 W/m2
02:48 52.5 °F /  11.4 °C 49.9 °F /  9.9 °C 30.40in /  1029.3hPa North 10.4mph /  16.7km/h   91% 0.00in /  0mm 0.0 W/m2
02:53 52.5 °F /  11.4 °C 49.9 °F /  9.9 °C 30.40in /  1029.3hPa North 10.4mph /  16.7km/h   91% 0.00in /  0mm 0.0 W/m2
02:58 52.5 °F /  11.4 °C 49.9 °F /  9.9 °C 30.40in /  1029.3hPa North 10.4mph /  16.7km/h   91% 0.00in /  0mm 0.0 W/m2
03:03 52.5 °F /  11.4 °C 49.9 °F /  9.9 °C 30.40in /  1029.3hPa North 10.4mph /  16.7km/h   91% 0.00in /  0mm 0.0 W/m2
03:08 52.5 °F /  11.4 °C 49.9 °F /  9.9 °C 30.40in /  1029.3hPa North 10.4mph /  16.7km/h   91% 0.00in /  0mm 0.0 W/m2
03:13 52.5 °F /  11.4 °C 49.9 °F /  9.9 °C 30.41in /  1029.7hPa North 10.4mph /  16.7km/h   91% 0.00in /  0mm 0.0 W/m2
03:18 52.5 °F /  11.4 °C 49.9 °F /  9.9 °C 30.41in /  1029.7hPa North 10.4mph /  16.7km/h   91% 0.00in /  0mm 0.0 W/m2
03:23 52.5 °F /  11.4 °C 49.9 °F /  9.9 °C 30.41in /  1029.7hPa North 10.4mph /  16.7km/h   91% 0.00in /  0mm 0.0 W/m2
03:28 52.5 °F /  11.4 °C 49.9 °F /  9.9 °C 30.41in /  1029.7hPa North 10.4mph /  16.7km/h   91% 0.00in /  0mm 0.0 W/m2
03:33 52.5 °F /  11.4 °C 49.9 °F /  9.9 °C 30.41in /  1029.7hPa North 10.4mph /  16.7km/h   91% 0.00in /  0mm 0.0 W/m2
03:38 52.5 °F /  11.4 °C 49.9 °F /  9.9 °C 30.41in /  1029.7hPa North 10.4mph /  16.7km/h   91% 0.00in /  0mm 0.0 W/m2
03:43 52.5 °F /  11.4 °C 49.9 °F /  9.9 °C 30.41in /  1029.7hPa North 10.4mph /  16.7km/h   91% 0.00in /  0mm 0.0 W/m2
03:48 52.5 °F /  11.4 °C 49.9 °F /  9.9 °C 30.41in /  1029.7hPa North 10.4mph /  16.7km/h   91% 0.00in /  0mm 0.0 W/m2
03:53 52.5 °F /  11.4 °C 49.9 °F /  9.9 °C 30.41in /  1029.7hPa North 10.4mph /  16.7km/h   91% 0.00in /  0mm 0.0 W/m2
03:58 52.5 °F /  11.4 °C 49.9 °F /  9.9 °C 30.41in /  1029.7hPa North 10.4mph /  16.7km/h   91% 0.00in /  0mm 0.0 W/m2
04:04 52.5 °F /  11.4 °C 49.9 °F /  9.9 °C 30.41in /  1029.7hPa North 10.4mph /  16.7km/h   91% 0.00in /  0mm 0.0 W/m2
04:09 52.5 °F /  11.4 °C 49.9 °F /  9.9 °C 30.41in /  1029.7hPa North 10.4mph /  16.7km/h   91% 0.00in /  0mm 0.0 W/m2
04:14 52.5 °F /  11.4 °C 49.9 °F /  9.9 °C 30.42in /  1030hPa North 10.4mph /  16.7km/h   91% 0.00in /  0mm 0.0 W/m2
04:19 52.5 °F /  11.4 °C 49.9 °F /  9.9 °C 30.42in /  1030hPa North 10.4mph /  16.7km/h   91% 0.00in /  0mm 0.0 W/m2
04:24 52.5 °F /  11.4 °C 49.9 °F /  9.9 °C 30.42in /  1030hPa North 10.4mph /  16.7km/h   91% 0.00in /  0mm 0.0 W/m2
04:29 52.5 °F /  11.4 °C 49.9 °F /  9.9 °C 30.42in /  1030hPa North 10.4mph /  16.7km/h   91% 0.00in /  0mm 0.0 W/m2
04:34 52.5 °F /  11.4 °C 49.9 °F /  9.9 °C 30.42in /  1030hPa North 10.4mph /  16.7km/h   91% 0.00in /  0mm 0.0 W/m2
04:39 52.5 °F /  11.4 °C 49.9 °F /  9.9 °C 30.42in /  1030hPa North 10.4mph /  16.7km/h   91% 0.00in /  0mm 0.0 W/m2
04:44 52.5 °F /  11.4 °C 49.9 °F /  9.9 °C 30.42in /  1030hPa North 10.4mph /  16.7km/h   91% 0.00in /  0mm 0.0 W/m2
04:49 52.5 °F /  11.4 °C 49.9 °F /  9.9 °C 30.41in /  1029.7hPa North 10.4mph /  16.7km/h   91% 0.00in /  0mm 0.0 W/m2
04:54 52.5 °F /  11.4 °C 49.9 °F /  9.9 °C 30.42in /  1030hPa North 10.4mph /  16.7km/h   91% 0.00in /  0mm 0.0 W/m2
05:00 52.5 °F /  11.4 °C 49.9 °F /  9.9 °C 30.41in /  1029.7hPa North 10.4mph /  16.7km/h   91% 0.00in /  0mm 0.0 W/m2
05:05 52.5 °F /  11.4 °C 49.9 °F /  9.9 °C 30.41in /  1029.7hPa North 10.4mph /  16.7km/h   91% 0.00in /  0mm 0.0 W/m2
05:10 52.5 °F /  11.4 °C 49.9 °F /  9.9 °C 30.41in /  1029.7hPa North 10.4mph /  16.7km/h   91% 0.00in /  0mm 0.0 W/m2
05:15 52.5 °F /  11.4 °C 49.9 °F /  9.9 °C 30.42in /  1030hPa North 10.4mph /  16.7km/h   91% 0.00in /  0mm 0.0 W/m2
05:20 52.5 °F /  11.4 °C 49.9 °F /  9.9 °C 30.42in /  1030hPa North 10.4mph /  16.7km/h   91% 0.00in /  0mm 0.0 W/m2
05:25 52.5 °F /  11.4 °C 49.9 °F /  9.9 °C 30.42in /  1030hPa North 10.4mph /  16.7km/h   91% 0.00in /  0mm 0.0 W/m2
05:30 52.5 °F /  11.4 °C 49.9 °F /  9.9 °C 30.42in /  1030hPa North 10.4mph /  16.7km/h   91% 0.00in /  0mm 0.0 W/m2
05:35 52.5 °F /  11.4 °C 49.9 °F /  9.9 °C 30.43in /  1030.4hPa North 10.4mph /  16.7km/h   91% 0.00in /  0mm 0.0 W/m2
05:40 52.5 °F /  11.4 °C 49.9 °F /  9.9 °C 30.43in /  1030.4hPa North 10.4mph /  16.7km/h   91% 0.00in /  0mm 0.0 W/m2
05:45 52.5 °F /  11.4 °C 49.9 °F /  9.9 °C 30.43in /  1030.4hPa North 10.4mph /  16.7km/h   91% 0.00in /  0mm 0.0 W/m2
05:50 52.5 °F /  11.4 °C 49.9 °F /  9.9 °C 30.43in /  1030.4hPa North 10.4mph /  16.7km/h   91% 0.00in /  0mm 0.0 W/m2
05:55 52.5 °F /  11.4 °C 49.9 °F /  9.9 °C 30.43in /  1030.4hPa North 10.4mph /  16.7km/h   91% 0.00in /  0mm 0.0 W/m2
06:00 52.5 °F /  11.4 °C 49.9 °F /  9.9 °C 30.44in /  1030.7hPa North 10.4mph /  16.7km/h   91% 0.00in /  0mm 0.0 W/m2
06:05 52.5 °F /  11.4 °C 49.9 °F /  9.9 °C 30.44in /  1030.7hPa North 10.4mph /  16.7km/h   91% 0.00in /  0mm 0.0 W/m2
06:11 52.5 °F /  11.4 °C 49.9 °F /  9.9 °C 30.44in /  1030.7hPa North 10.4mph /  16.7km/h   91% 0.00in /  0mm 0.0 W/m2
06:16 52.5 °F /  11.4 °C 49.9 °F /  9.9 °C 30.44in /  1030.7hPa North 10.4mph /  16.7km/h   91% 0.00in /  0mm 0.0 W/m2
06:21 52.5 °F /  11.4 °C 49.9 °F /  9.9 °C 30.45in /  1031hPa North 10.4mph /  16.7km/h   91% 0.00in /  0mm 0.0 W/m2
06:26 52.5 °F /  11.4 °C 49.9 °F /  9.9 °C 30.45in /  1031hPa North 10.4mph /  16.7km/h   91% 0.00in /  0mm 0.0 W/m2
06:31 52.5 °F /  11.4 °C 49.9 °F /  9.9 °C 30.45in /  1031hPa North 10.4mph /  16.7km/h   91% 0.00in /  0mm 0.0 W/m2
06:36 52.5 °F /  11.4 °C 49.9 °F /  9.9 °C 30.45in /  1031hPa North 10.4mph /  16.7km/h   91% 0.00in /  0mm 0.0 W/m2
06:41 52.5 °F /  11.4 °C 49.9 °F /  9.9 °C 30.46in /  1031.4hPa North 10.4mph /  16.7km/h   91% 0.00in /  0mm 0.0 W/m2
06:46 52.5 °F /  11.4 °C 49.9 °F /  9.9 °C 30.46in /  1031.4hPa North 10.4mph /  16.7km/h   91% 0.00in /  0mm 0.0 W/m2
06:51 52.5 °F /  11.4 °C 49.9 °F /  9.9 °C 30.46in /  1031.4hPa North 10.4mph /  16.7km/h   91% 0.00in /  0mm 0.0 W/m2
06:56 52.5 °F /  11.4 °C 49.9 °F /  9.9 °C 30.46in /  1031.4hPa North 10.4mph /  16.7km/h   91% 0.00in /  0mm 0.0 W/m2
07:01 52.5 °F /  11.4 °C 49.9 °F /  9.9 °C 30.46in /  1031.4hPa North 10.4mph /  16.7km/h   91% 0.00in /  0mm 0.0 W/m2 CLR
07:06 52.5 °F /  11.4 °C 49.9 °F /  9.9 °C 30.46in /  1031.4hPa North 10.4mph /  16.7km/h   91% 0.00in /  0mm 0.0 W/m2 CLR
07:11 52.5 °F /  11.4 °C 49.9 °F /  9.9 °C 30.46in /  1031.4hPa North 10.4mph /  16.7km/h   91% 0.00in /  0mm 0.0 W/m2 CLR
07:16 52.5 °F /  11.4 °C 49.9 °F /  9.9 °C 30.47in /  1031.7hPa North 10.4mph /  16.7km/h   91% 0.00in /  0mm 0.0 W/m2 CLR
07:21 52.5 °F /  11.4 °C 49.9 °F /  9.9 °C 30.47in /  1031.7hPa North 10.4mph /  16.7km/h   91% 0.00in /  0mm 0.0 W/m2 CLR
07:26 52.5 °F /  11.4 °C 49.9 °F /  9.9 °C 30.47in /  1031.7hPa North 10.4mph /  16.7km/h   91% 0.00in /  0mm 0.0 W/m2 CLR
07:32 52.5 °F /  11.4 °C 49.9 °F /  9.9 °C 30.47in /  1031.7hPa North 10.4mph /  16.7km/h   91% 0.00in /  0mm 0.0 W/m2 CLR
07:37 52.5 °F /  11.4 °C 49.9 °F /  9.9 °C 30.47in /  1031.7hPa North 10.4mph /  16.7km/h   91% 0.00in /  0mm 0.0 W/m2 CLR
07:42 52.5 °F /  11.4 °C 49.9 °F /  9.9 °C 30.47in /  1031.7hPa North 10.4mph /  16.7km/h   91% 0.00in /  0mm 0.0 W/m2 CLR
07:47 52.5 °F /  11.4 °C 49.9 °F /  9.9 °C 30.48in /  1032.1hPa North 10.4mph /  16.7km/h   91% 0.00in /  0mm 0.0 W/m2 CLR
07:52 52.5 °F /  11.4 °C 49.9 °F /  9.9 °C 30.47in /  1031.7hPa North 10.4mph /  16.7km/h   91% 0.00in /  0mm 0.0 W/m2 CLR
07:57 52.5 °F /  11.4 °C 49.9 °F /  9.9 °C 30.48in /  1032.1hPa North 10.4mph /  16.7km/h   91% 0.00in /  0mm 0.0 W/m2 CLR
08:02 52.5 °F /  11.4 °C 49.9 °F /  9.9 °C 30.48in /  1032.1hPa North 10.4mph /  16.7km/h   91% 0.00in /  0mm 0.0 W/m2 CLR
08:07 52.5 °F /  11.4 °C 49.9 °F /  9.9 °C 30.48in /  1032.1hPa North 10.4mph /  16.7km/h   91% 0.00in /  0mm 0.0 W/m2 CLR
08:12 52.5 °F /  11.4 °C 49.9 °F /  9.9 °C 30.48in /  1032.1hPa North 10.4mph /  16.7km/h   91% 0.00in /  0mm 0.0 W/m2 CLR
08:17 52.5 °F /  11.4 °C 49.9 °F /  9.9 °C 30.48in /  1032.1hPa North 10.4mph /  16.7km/h   91% 0.00in /  0mm 0.0 W/m2 CLR
08:23 52.5 °F /  11.4 °C 49.9 °F /  9.9 °C 30.49in /  1032.4hPa North 10.4mph /  16.7km/h   91% 0.00in /  0mm 0.0 W/m2 CLR
08:28 52.5 °F /  11.4 °C 49.9 °F /  9.9 °C 30.49in /  1032.4hPa North 10.4mph /  16.7km/h   91% 0.00in /  0mm 0.0 W/m2 CLR
08:33 52.5 °F /  11.4 °C 49.9 °F /  9.9 °C 30.49in /  1032.4hPa North 10.4mph /  16.7km/h   91% 0.00in /  0mm 0.0 W/m2 CLR
08:38 52.5 °F /  11.4 °C 49.9 °F /  9.9 °C 30.49in /  1032.4hPa North 10.4mph /  16.7km/h   91% 0.00in /  0mm 0.0 W/m2 CLR
08:43 52.5 °F /  11.4 °C 49.9 °F /  9.9 °C 30.49in /  1032.4hPa North 10.4mph /  16.7km/h   91% 0.00in /  0mm 0.0 W/m2 CLR
08:48 52.5 °F /  11.4 °C 49.9 °F /  9.9 °C 30.49in /  1032.4hPa North 10.4mph /  16.7km/h   91% 0.00in /  0mm 0.0 W/m2 CLR
08:53 52.5 °F /  11.4 °C 49.9 °F /  9.9 °C 30.50in /  1032.7hPa North 10.4mph /  16.7km/h   91% 0.00in /  0mm 0.0 W/m2 CLR
08:58 52.5 °F /  11.4 °C 49.9 °F /  9.9 °C 30.50in /  1032.7hPa North 10.4mph /  16.7km/h   91% 0.00in /  0mm 0.0 W/m2 CLR
09:03 52.5 °F /  11.4 °C 49.9 °F /  9.9 °C 30.50in /  1032.7hPa North 10.4mph /  16.7km/h   91% 0.00in /  0mm 0.0 W/m2 OVC
09:08 56.0 °F /  13.3 °C 54.0 °F /  12.2 °C 30.50in /  1032.7hPa ENE 10.4mph /  16.7km/h   93% 0.00in /  0mm 0.0 W/m2 OVC
09:13 56.5 °F /  13.6 °C 54.5 °F /  12.5 °C 30.50in /  1032.7hPa ENE 10.4mph /  16.7km/h   93% 0.00in /  0mm 0.0 W/m2 OVC
09:19 56.6 °F /  13.7 °C 54.6 °F /  12.6 °C 30.50in /  1032.7hPa ENE 10.4mph /  16.7km/h   93% 0.00in /  0mm 0.0 W/m2 OVC
09:24 56.9 °F /  13.8 °C 54.9 °F /  12.7 °C 30.51in /  1033.1hPa ENE 10.4mph /  16.7km/h   93% 0.00in /  0mm 0.0 W/m2 OVC
09:29 57.2 °F /  14 °C 54.9 °F /  12.7 °C 30.51in /  1033.1hPa ENE 10.4mph /  16.7km/h   92% 0.00in /  0mm 0.0 W/m2 OVC
09:34 57.7 °F /  14.3 °C 55.4 °F /  13 °C 30.51in /  1033.1hPa ENE 10.4mph /  16.7km/h   92% 0.00in /  0mm 0.0 W/m2 OVC
09:39 58.2 °F /  14.6 °C 55.6 °F /  13.1 °C 30.51in /  1033.1hPa ENE 10.4mph /  16.7km/h   91% 0.00in /  0mm 0.0 W/m2 OVC
09:44 58.7 °F /  14.8 °C 55.5 °F /  13.1 °C 30.51in /  1033.1hPa ENE 10.4mph /  16.7km/h   89% 0.00in /  0mm 0.0 W/m2 OVC
09:49 59.2 °F /  15.1 °C 56.0 °F /  13.3 °C 30.52in /  1033.4hPa ENE 10.4mph /  16.7km/h   89% 0.00in /  0mm 0.0 W/m2 OVC
09:54 59.7 °F /  15.4 °C 56.5 °F /  13.6 °C 30.52in /  1033.4hPa ENE 10.4mph /  16.7km/h   89% 0.00in /  0mm 0.0 W/m2 OVC
09:59 60.3 °F /  15.7 °C 56.7 °F /  13.7 °C 30.52in /  1033.4hPa ENE 10.4mph /  16.7km/h   88% 0.00in /  0mm 0.0 W/m2 OVC
10:04 60.7 °F /  15.9 °C 56.8 °F /  13.8 °C 30.52in /  1033.4hPa ENE 10.4mph /  16.7km/h   87% 0.00in /  0mm 0.0 W/m2 OVC
10:09 61.2 °F /  16.2 °C 57.3 °F /  14.1 °C 30.52in /  1033.4hPa NNE 10.4mph /  16.7km/h   87% 0.00in /  0mm 0.0 W/m2 OVC
10:14 61.7 °F /  16.5 °C 57.5 °F /  14.2 °C 30.52in /  1033.4hPa NNE 10.4mph /  16.7km/h   86% 0.00in /  0mm 0.0 W/m2 OVC
10:19 62.1 °F /  16.7 °C 57.5 °F /  14.2 °C 30.52in /  1033.4hPa NNE 10.4mph /  16.7km/h   85% 0.00in /  0mm 0.0 W/m2 OVC
10:24 62.6 °F /  17 °C 58.0 °F /  14.4 °C 30.52in /  1033.4hPa NNE 10.4mph /  16.7km/h   85% 0.00in /  0mm 0.0 W/m2 OVC
10:29 63.1 °F /  17.3 °C 58.2 °F /  14.6 °C 30.52in /  1033.4hPa NNE 10.4mph /  16.7km/h 10.4mph /  16.7km/h 84% 0.00in /  0mm 0.0 W/m2 OVC
10:34 63.9 °F /  17.7 °C 58.6 °F /  14.8 °C 30.53in /  1033.7hPa North 10.4mph /  16.7km/h   83% 0.00in /  0mm 0.0 W/m2 OVC
10:39 64.5 °F /  18.1 °C 58.5 °F /  14.7 °C 30.52in /  1033.4hPa North 10.4mph /  16.7km/h   81% 0.00in /  0mm 0.0 W/m2 OVC
10:44 64.9 °F /  18.3 °C 58.6 °F /  14.8 °C 30.52in /  1033.4hPa ENE 10.4mph /  16.7km/h 10.4mph /  16.7km/h 80% 0.00in /  0mm 0.0 W/m2 OVC
10:50 65.2 °F /  18.4 °C 59.2 °F /  15.1 °C 30.52in /  1033.4hPa NNE 10.4mph /  16.7km/h   81% 0.00in /  0mm 0.0 W/m2 OVC
10:55 65.9 °F /  18.8 °C 59.2 °F /  15.1 °C 30.52in /  1033.4hPa NNE 10.4mph /  16.7km/h   79% 0.00in /  0mm 0.0 W/m2 OVC
11:00 66.3 °F /  19.1 °C 59.6 °F /  15.3 °C 30.52in /  1033.4hPa NNW 10.4mph /  16.7km/h   79% 0.00in /  0mm 0.0 W/m2 OVC
11:05 66.6 °F /  19.2 °C 59.5 °F /  15.3 °C 30.52in /  1033.4hPa NNW 10.4mph /  16.7km/h   78% 0.00in /  0mm 0.0 W/m2 OVC
11:10 67.1 °F /  19.5 °C 60.0 °F /  15.6 °C 30.52in /  1033.4hPa NNW 10.4mph /  16.7km/h   78% 0.00in /  0mm 0.0 W/m2 OVC
11:15 67.6 °F /  19.8 °C 60.1 °F /  15.6 °C 30.52in /  1033.4hPa NNW 10.4mph /  16.7km/h   77% 0.00in /  0mm 0.0 W/m2 OVC
11:20 67.9 °F /  19.9 °C 60.1 °F /  15.6 °C 30.52in /  1033.4hPa NNE 10.4mph /  16.7km/h 10.4mph /  16.7km/h 76% 0.00in /  0mm 0.0 W/m2 OVC
11:25 68.2 °F /  20.1 °C 60.0 °F /  15.6 °C 30.52in /  1033.4hPa North 10.4mph /  16.7km/h 10.4mph /  16.7km/h 75% 0.00in /  0mm 0.0 W/m2 OVC
11:30 68.6 °F /  20.3 °C 60.7 °F /  15.9 °C 30.51in /  1033.1hPa NW 10.4mph /  16.7km/h 10.4mph /  16.7km/h 76% 0.00in /  0mm 0.0 W/m2 OVC
11:35 68.9 °F /  20.5 °C 60.3 °F /  15.7 °C 30.51in /  1033.1hPa ENE 10.4mph /  16.7km/h   74% 0.00in /  0mm 0.0 W/m2 OVC
11:40 68.8 °F /  20.4 °C 60.2 °F /  15.7 °C 30.51in /  1033.1hPa ENE 10.4mph /  16.7km/h   74% 0.00in /  0mm 0.0 W/m2 OVC
11:45 69.0 °F /  20.6 °C 60.4 °F /  15.8 °C 30.51in /  1033.1hPa North 10.4mph /  16.7km/h   74% 0.00in /  0mm 0.0 W/m2 OVC
11:50 69.3 °F /  20.7 °C 60.3 °F /  15.7 °C 30.51in /  1033.1hPa ENE 10.4mph /  16.7km/h 10.4mph /  16.7km/h 73% 0.00in /  0mm 0.0 W/m2 OVC
11:55 69.5 °F /  20.8 °C 60.1 °F /  15.6 °C 30.51in /  1033.1hPa NNE 10.4mph /  16.7km/h 10.4mph /  16.7km/h 72% 0.00in /  0mm 0.0 W/m2 OVC
12:00 69.3 °F /  20.7 °C 59.9 °F /  15.5 °C 30.50in /  1032.7hPa East 10.4mph /  16.7km/h 10.4mph /  16.7km/h 72% 0.00in /  0mm 0.0 W/m2 OVC
12:05 69.2 °F /  20.7 °C 60.2 °F /  15.7 °C 30.50in /  1032.7hPa WNW 10.4mph /  16.7km/h   73% 0.00in /  0mm 0.0 W/m2 OVC
12:10 69.2 °F /  20.7 °C 59.8 °F /  15.4 °C 30.50in /  1032.7hPa East 10.4mph /  16.7km/h 10.4mph /  16.7km/h 72% 0.00in /  0mm 0.0 W/m2 OVC
12:15 69.2 °F /  20.7 °C 59.8 °F /  15.4 °C 30.50in /  1032.7hPa ENE 10.4mph /  16.7km/h 10.4mph /  16.7km/h 72% 0.00in /  0mm 0.0 W/m2 OVC
12:20 69.2 °F /  20.7 °C 59.8 °F /  15.4 °C 30.50in /  1032.7hPa East 10.4mph /  16.7km/h 10.4mph /  16.7km/h 72% 0.00in /  0mm 0.0 W/m2 OVC
12:25 69.3 °F /  20.7 °C 59.9 °F /  15.5 °C 30.49in /  1032.4hPa NW 10.4mph /  16.7km/h   72% 0.00in /  0mm 0.0 W/m2 OVC
12:30 69.7 °F /  20.9 °C 59.9 °F /  15.5 °C 30.49in /  1032.4hPa ESE 10.4mph /  16.7km/h 10.4mph /  16.7km/h 71% 0.00in /  0mm 0.0 W/m2 OVC
12:35 69.7 °F /  20.9 °C 59.9 °F /  15.5 °C 30.49in /  1032.4hPa North 10.4mph /  16.7km/h 10.4mph /  16.7km/h 71% 0.00in /  0mm 0.0 W/m2 OVC
12:40 69.7 °F /  20.9 °C 59.5 °F /  15.3 °C 30.49in /  1032.4hPa NNW 10.4mph /  16.7km/h   70% 0.00in /  0mm 0.0 W/m2 OVC
12:45 69.9 °F /  21.1 °C 59.7 °F /  15.4 °C 30.49in /  1032.4hPa North 10.4mph /  16.7km/h 10.4mph /  16.7km/h 70% 0.00in /  0mm 0.0 W/m2 OVC
12:50 69.8 °F /  21 °C 59.6 °F /  15.3 °C 30.48in /  1032.1hPa NNW 10.4mph /  16.7km/h 10.4mph /  16.7km/h 70% 0.00in /  0mm 0.0 W/m2 OVC
12:56 69.9 °F /  21.1 °C 59.7 °F /  15.4 °C 30.48in /  1032.1hPa SE 10.4mph /  16.7km/h 10.4mph /  16.7km/h 70% 0.00in /  0mm 0.0 W/m2 OVC
13:01 69.7 °F /  20.9 °C 59.5 °F /  15.3 °C 30.48in /  1032.1hPa SW 10.4mph /  16.7km/h 10.4mph /  16.7km/h 70% 0.00in /  0mm 0.0 W/m2 OVC
13:06 69.7 °F /  20.9 °C 59.5 °F /  15.3 °C 30.48in /  1032.1hPa ESE 10.4mph /  16.7km/h 10.4mph /  16.7km/h 70% 0.00in /  0mm 0.0 W/m2 OVC
13:11 69.7 °F /  20.9 °C 59.5 °F /  15.3 °C 30.48in /  1032.1hPa SE 10.4mph /  16.7km/h 10.4mph /  16.7km/h 70% 0.00in /  0mm 0.0 W/m2 OVC
13:16 69.6 °F /  20.9 °C 59.4 °F /  15.2 °C 30.48in /  1032.1hPa NNW 10.4mph /  16.7km/h 10.4mph /  16.7km/h 70% 0.00in /  0mm 0.0 W/m2 OVC
13:21 69.8 °F /  21 °C 59.6 °F /  15.3 °C 30.48in /  1032.1hPa NE 10.4mph /  16.7km/h 10.4mph /  16.7km/h 70% 0.00in /  0mm 0.0 W/m2 OVC
13:26 69.7 °F /  20.9 °C 59.5 °F /  15.3 °C 30.48in /  1032.1hPa East 10.4mph /  16.7km/h 10.4mph /  16.7km/h 70% 0.00in /  0mm 0.0 W/m2 OVC
13:31 69.7 °F /  20.9 °C 59.5 °F /  15.3 °C 30.47in /  1031.7hPa North 10.4mph /  16.7km/h 10.4mph /  16.7km/h 70% 0.00in /  0mm 0.0 W/m2 OVC
13:36 69.8 °F /  21 °C 59.6 °F /  15.3 °C 30.47in /  1031.7hPa ESE 10.4mph /  16.7km/h 10.4mph /  16.7km/h 70% 0.00in /  0mm 0.0 W/m2 OVC
13:41 69.8 °F /  21 °C 59.6 °F /  15.3 °C 30.47in /  1031.7hPa North 10.4mph /  16.7km/h 10.4mph /  16.7km/h 70% 0.00in /  0mm 0.0 W/m2 OVC
13:46 69.9 °F /  21.1 °C 59.7 °F /  15.4 °C 30.47in /  1031.7hPa SSE 10.4mph /  16.7km/h 10.4mph /  16.7km/h 70% 0.00in /  0mm 0.0 W/m2 OVC
13:51 69.8 °F /  21 °C 59.6 °F /  15.3 °C 30.47in /  1031.7hPa SW 10.4mph /  16.7km/h   70% 0.00in /  0mm 0.0 W/m2 OVC
13:56 70.0 °F /  21.1 °C 59.8 °F /  15.4 °C 30.47in /  1031.7hPa WSW 10.4mph /  16.7km/h 10.4mph /  16.7km/h 70% 0.00in /  0mm 0.0 W/m2 OVC
14:01 70.2 °F /  21.2 °C 59.6 °F /  15.3 °C 30.47in /  1031.7hPa SSW 10.4mph /  16.7km/h 10.4mph /  16.7km/h 69% 0.00in /  0mm 0.0 W/m2 OVC
14:07 70.3 °F /  21.3 °C 60.1 °F /  15.6 °C 30.47in /  1031.7hPa ESE 10.4mph /  16.7km/h   70% 0.00in /  0mm 0.0 W/m2 OVC
14:11 70.7 °F /  21.5 °C 60.0 °F /  15.6 °C 30.47in /  1031.7hPa ESE 10.4mph /  16.7km/h   69% 0.00in /  0mm 0.0 W/m2 OVC
14:17 70.7 °F /  21.5 °C 59.6 °F /  15.3 °C 30.46in /  1031.4hPa SW 10.4mph /  16.7km/h 10.4mph /  16.7km/h 68% 0.00in /  0mm 0.0 W/m2 OVC
14:22 70.8 °F /  21.6 °C 59.7 °F /  15.4 °C 30.46in /  1031.4hPa SW 10.4mph /  16.7km/h   68% 0.00in /  0mm 0.0 W/m2 OVC
14:27 70.8 °F /  21.6 °C 59.3 °F /  15.2 °C 30.46in /  1031.4hPa SSE 10.4mph /  16.7km/h 10.4mph /  16.7km/h 67% 0.00in /  0mm 0.0 W/m2 OVC
14:32 70.6 °F /  21.4 °C 59.5 °F /  15.3 °C 30.46in /  1031.4hPa WNW 10.4mph /  16.7km/h   68% 0.00in /  0mm 0.0 W/m2 OVC
14:37 70.9 °F /  21.6 °C 59.8 °F /  15.4 °C 30.46in /  1031.4hPa NE 10.4mph /  16.7km/h 10.4mph /  16.7km/h 68% 0.00in /  0mm 0.0 W/m2 OVC
14:42 71.1 °F /  21.7 °C 60.0 °F /  15.6 °C 30.46in /  1031.4hPa NE 10.4mph /  16.7km/h 10.4mph /  16.7km/h 68% 0.00in /  0mm 0.0 W/m2 OVC
14:47 71.0 °F /  21.7 °C 59.5 °F /  15.3 °C 30.46in /  1031.4hPa South 10.4mph /  16.7km/h 10.4mph /  16.7km/h 67% 0.00in /  0mm 0.0 W/m2 OVC
14:52 70.8 °F /  21.6 °C 59.3 °F /  15.2 °C 30.46in /  1031.4hPa SSE 10.4mph /  16.7km/h   67% 0.00in /  0mm 0.0 W/m2 OVC
14:57 70.9 °F /  21.6 °C 59.4 °F /  15.2 °C 30.46in /  1031.4hPa SSE 10.4mph /  16.7km/h 10.4mph /  16.7km/h 67% 0.00in /  0mm 0.0 W/m2 OVC
15:02 71.1 °F /  21.7 °C 60.0 °F /  15.6 °C 30.46in /  1031.4hPa SSE 10.4mph /  16.7km/h   68% 0.00in /  0mm 0.0 W/m2 OVC
15:07 71.2 °F /  21.8 °C 59.7 °F /  15.4 °C 30.46in /  1031.4hPa NNE 10.4mph /  16.7km/h 10.4mph /  16.7km/h 67% 0.00in /  0mm 0.0 W/m2 OVC
15:12 71.1 °F /  21.7 °C 59.6 °F /  15.3 °C 30.46in /  1031.4hPa SW 10.4mph /  16.7km/h 10.4mph /  16.7km/h 67% 0.00in /  0mm 0.0 W/m2 OVC
15:17 71.0 °F /  21.7 °C 59.5 °F /  15.3 °C 30.46in /  1031.4hPa WNW 10.4mph /  16.7km/h 10.4mph /  16.7km/h 67% 0.00in /  0mm 0.0 W/m2 OVC
15:22 71.0 °F /  21.7 °C 59.5 °F /  15.3 °C 30.46in /  1031.4hPa North 10.4mph /  16.7km/h   67% 0.00in /  0mm 0.0 W/m2 OVC
15:27 71.4 °F /  21.9 °C 59.4 °F /  15.2 °C 30.46in /  1031.4hPa ENE 10.4mph /  16.7km/h 10.4mph /  16.7km/h 66% 0.00in /  0mm 0.0 W/m2 OVC
15:32 71.3 °F /  21.8 °C 59.4 °F /  15.2 °C 30.46in /  1031.4hPa SW 10.4mph /  16.7km/h 10.4mph /  16.7km/h 66% 0.00in /  0mm 0.0 W/m2 OVC
15:37 71.4 °F /  21.9 °C 59.4 °F /  15.2 °C 30.46in /  1031.4hPa East 10.4mph /  16.7km/h 10.4mph /  16.7km/h 66% 0.00in /  0mm 0.0 W/m2 OVC
15:42 71.6 °F /  22 °C 59.6 °F /  15.3 °C 30.46in /  1031.4hPa SSE 10.4mph /  16.7km/h   66% 0.00in /  0mm 0.0 W/m2 OVC
15:47 71.3 °F /  21.8 °C 59.4 °F /  15.2 °C 30.46in /  1031.4hPa ENE 10.4mph /  16.7km/h   66% 0.00in /  0mm 0.0 W/m2 OVC
15:53 71.2 °F /  21.8 °C 59.3 °F /  15.2 °C 30.46in /  1031.4hPa SSE 10.4mph /  16.7km/h 10.4mph /  16.7km/h 66% 0.00in /  0mm 0.0 W/m2 OVC
15:58 70.9 °F /  21.6 °C 59.4 °F /  15.2 °C 30.46in /  1031.4hPa East 10.4mph /  16.7km/h 10.4mph /  16.7km/h 67% 0.00in /  0mm 0.0 W/m2 OVC
16:03 70.8 °F /  21.6 °C 59.3 °F /  15.2 °C 30.46in /  1031.4hPa SSW 10.4mph /  16.7km/h 10.4mph /  16.7km/h 67% 0.00in /  0mm 0.0 W/m2 CLR
16:08 70.7 °F /  21.5 °C 59.2 °F /  15.1 °C 30.46in /  1031.4hPa SE 10.4mph /  16.7km/h 10.4mph /  16.7km/h 67% 0.00in /  0mm 0.0 W/m2 CLR
16:13 70.8 °F /  21.6 °C 59.3 °F /  15.2 °C 30.46in /  1031.4hPa ESE 10.4mph /  16.7km/h   67% 0.00in /  0mm 0.0 W/m2 CLR
16:18 70.8 °F /  21.6 °C 59.3 °F /  15.2 °C 30.46in /  1031.4hPa ESE 10.4mph /  16.7km/h   67% 0.00in /  0mm 0.0 W/m2 CLR
16:23 70.9 °F /  21.6 °C 59.0 °F /  15 °C 30.46in /  1031.4hPa West 10.4mph /  16.7km/h   66% 0.00in /  0mm 0.0 W/m2 CLR
16:28 70.9 °F /  21.6 °C 59.4 °F /  15.2 °C 30.46in /  1031.4hPa WNW 10.4mph /  16.7km/h 10.4mph /  16.7km/h 67% 0.00in /  0mm 0.0 W/m2 CLR
16:33 70.7 °F /  21.5 °C 58.8 °F /  14.9 °C 30.46in /  1031.4hPa NW 10.4mph /  16.7km/h   66% 0.00in /  0mm 0.0 W/m2 CLR
16:38 70.8 °F /  21.6 °C 58.9 °F /  14.9 °C 30.46in /  1031.4hPa NW 10.4mph /  16.7km/h   66% 0.00in /  0mm 0.0 W/m2 CLR
16:43 70.7 °F /  21.5 °C 58.4 °F /  14.7 °C 30.46in /  1031.4hPa ESE 10.4mph /  16.7km/h 10.4mph /  16.7km/h 65% 0.00in /  0mm 0.0 W/m2 CLR
16:48 70.6 °F /  21.4 °C 59.1 °F /  15.1 °C 30.46in /  1031.4hPa East 10.4mph /  16.7km/h 10.4mph /  16.7km/h 67% 0.00in /  0mm 0.0 W/m2 CLR
16:53 70.5 °F /  21.4 °C 59.0 °F /  15 °C 30.47in /  1031.7hPa ENE 10.4mph /  16.7km/h 10.4mph /  16.7km/h 67% 0.00in /  0mm 0.0 W/m2 CLR
16:59 70.4 °F /  21.3 °C 59.3 °F /  15.2 °C 30.47in /  1031.7hPa SSE 10.4mph /  16.7km/h   68% 0.00in /  0mm 0.0 W/m2 CLR
17:04 70.2 °F /  21.2 °C 59.6 °F /  15.3 °C 30.47in /  1031.7hPa SSE 10.4mph /  16.7km/h   69% 0.00in /  0mm 0.0 W/m2 CLR
17:09 70.1 °F /  21.2 °C 59.5 °F /  15.3 °C 30.47in /  1031.7hPa SSE 10.4mph /  16.7km/h   69% 0.00in /  0mm 0.0 W/m2 CLR
17:14 69.9 °F /  21.1 °C 59.7 °F /  15.4 °C 30.47in /  1031.7hPa SSE 10.4mph /  16.7km/h   70% 0.00in /  0mm 0.0 W/m2 CLR
17:19 69.6 °F /  20.9 °C 59.4 °F /  15.2 °C 30.47in /  1031.7hPa SSE 10.4mph /  16.7km/h   70% 0.00in /  0mm 0.0 W/m2 CLR
17:24 69.3 °F /  20.7 °C 59.1 °F /  15.1 °C 30.47in /  1031.7hPa SSE 10.4mph /  16.7km/h   70% 0.00in /  0mm 0.0 W/m2 CLR
17:29 69.0 °F /  20.6 °C 59.2 °F /  15.1 °C 30.47in /  1031.7hPa SSE 10.4mph /  16.7km/h   71% 0.00in /  0mm 0.0 W/m2 CLR
17:34 68.4 °F /  20.2 °C 59.0 °F /  15 °C 30.47in /  1031.7hPa SSE 10.4mph /  16.7km/h   72% 0.00in /  0mm 0.0 W/m2 CLR
17:39 68.0 °F /  20 °C 59.0 °F /  15 °C 30.47in /  1031.7hPa SSE 10.4mph /  16.7km/h   73% 0.00in /  0mm 0.0 W/m2 CLR
17:44 67.5 °F /  19.7 °C 58.9 °F /  14.9 °C 30.47in /  1031.7hPa SSE 10.4mph /  16.7km/h   74% 0.00in /  0mm 0.0 W/m2 CLR
17:49 67.0 °F /  19.4 °C 58.4 °F /  14.7 °C 30.47in /  1031.7hPa SSE 10.4mph /  16.7km/h   74% 0.00in /  0mm 0.0 W/m2 CLR
17:54 66.6 °F /  19.2 °C 58.4 °F /  14.7 °C 30.47in /  1031.7hPa SSE 10.4mph /  16.7km/h   75% 0.00in /  0mm 0.0 W/m2 CLR
17:59 66.2 °F /  19 °C 58.0 °F /  14.4 °C 30.47in /  1031.7hPa SSE 10.4mph /  16.7km/h   75% 0.00in /  0mm 0.0 W/m2 CLR
18:05 65.8 °F /  18.8 °C 58.0 °F /  14.4 °C 30.47in /  1031.7hPa SSE 10.4mph /  16.7km/h   76% 0.00in /  0mm 0.0 W/m2
18:10 65.3 °F /  18.5 °C 57.5 °F /  14.2 °C 30.47in /  1031.7hPa SSE 10.4mph /  16.7km/h   76% 0.00in /  0mm 0.0 W/m2
18:15 64.9 °F /  18.3 °C 57.5 °F /  14.2 °C 30.47in /  1031.7hPa SSE 10.4mph /  16.7km/h   77% 0.00in /  0mm 0.0 W/m2
18:20 64.4 °F /  18 °C 57.4 °F /  14.1 °C 30.47in /  1031.7hPa SSE 10.4mph /  16.7km/h   78% 0.00in /  0mm 0.0 W/m2
18:25 64.1 °F /  17.8 °C 57.5 °F /  14.2 °C 30.48in /  1032.1hPa SSE 10.4mph /  16.7km/h   79% 0.00in /  0mm 0.0 W/m2
18:30 63.8 °F /  17.7 °C 57.2 °F /  14 °C 30.48in /  1032.1hPa SSE 10.4mph /  16.7km/h   79% 0.00in /  0mm 0.0 W/m2
18:35 63.6 °F /  17.6 °C 57.0 °F /  13.9 °C 30.48in /  1032.1hPa SSE 10.4mph /  16.7km/h   79% 0.00in /  0mm 0.0 W/m2
18:40 63.3 °F /  17.4 °C 57.0 °F /  13.9 °C 30.48in /  1032.1hPa SSE 10.4mph /  16.7km/h   80% 0.00in /  0mm 0.0 W/m2
18:45 63.2 °F /  17.3 °C 56.9 °F /  13.8 °C 30.48in /  1032.1hPa SSE 10.4mph /  16.7km/h   80% 0.00in /  0mm 0.0 W/m2
18:50 63.0 °F /  17.2 °C 56.7 °F /  13.7 °C 30.48in /  1032.1hPa SSE 10.4mph /  16.7km/h   80% 0.00in /  0mm 0.0 W/m2
18:55 62.8 °F /  17.1 °C 56.9 °F /  13.8 °C 30.48in /  1032.1hPa SSE 10.4mph /  16.7km/h   81% 0.00in /  0mm 0.0 W/m2
19:00 62.6 °F /  17 °C 56.7 °F /  13.7 °C 30.48in /  1032.1hPa SSE 10.4mph /  16.7km/h   81% 0.00in /  0mm 0.0 W/m2
19:06 62.4 °F /  16.9 °C 56.5 °F /  13.6 °C 30.48in /  1032.1hPa SSE 10.4mph /  16.7km/h   81% 0.00in /  0mm 0.0 W/m2
19:11 62.2 °F /  16.8 °C 56.6 °F /  13.7 °C 30.49in /  1032.4hPa SSE 10.4mph /  16.7km/h   82% 0.00in /  0mm 0.0 W/m2
19:16 62.0 °F /  16.7 °C 56.8 °F /  13.8 °C 30.49in /  1032.4hPa SSE 10.4mph /  16.7km/h   83% 0.00in /  0mm 0.0 W/m2
19:21 62.1 °F /  16.7 °C 56.9 °F /  13.8 °C 30.49in /  1032.4hPa SSE 10.4mph /  16.7km/h   83% 0.00in /  0mm 0.0 W/m2
19:26 62.3 °F /  16.8 °C 56.7 °F /  13.7 °C 30.49in /  1032.4hPa SSE 10.4mph /  16.7km/h   82% 0.00in /  0mm 0.0 W/m2
19:31 62.1 °F /  16.7 °C 56.5 °F /  13.6 °C 30.49in /  1032.4hPa SSE 10.4mph /  16.7km/h   82% 0.00in /  0mm 0.0 W/m2
19:36 61.9 °F /  16.6 °C 56.3 °F /  13.5 °C 30.49in /  1032.4hPa SSE 10.4mph /  16.7km/h   82% 0.00in /  0mm 0.0 W/m2
19:41 61.7 °F /  16.5 °C 56.5 °F /  13.6 °C 30.49in /  1032.4hPa SSE 10.4mph /  16.7km/h   83% 0.00in /  0mm 0.0 W/m2
19:46 61.4 °F /  16.3 °C 56.2 °F /  13.4 °C 30.49in /  1032.4hPa SSE 10.4mph /  16.7km/h   83% 0.00in /  0mm 0.0 W/m2
19:51 61.2 °F /  16.2 °C 56.0 °F /  13.3 °C 30.49in /  1032.4hPa SSE 10.4mph /  16.7km/h   83% 0.00in /  0mm 0.0 W/m2
19:56 60.9 °F /  16.1 °C 56.0 °F /  13.3 °C 30.49in /  1032.4hPa SSE 10.4mph /  16.7km/h   84% 0.00in /  0mm 0.0 W/m2
20:01 60.6 °F /  15.9 °C 55.7 °F /  13.2 °C 30.49in /  1032.4hPa SSE 10.4mph /  16.7km/h   84% 0.00in /  0mm 0.0 W/m2
20:06 60.3 °F /  15.7 °C 55.4 °F /  13 °C 30.49in /  1032.4hPa SSE 10.4mph /  16.7km/h   84% 0.00in /  0mm 0.0 W/m2
20:11 60.1 °F /  15.6 °C 55.6 °F /  13.1 °C 30.49in /  1032.4hPa SSE 10.4mph /  16.7km/h   85% 0.00in /  0mm 0.0 W/m2
20:16 59.8 °F /  15.4 °C 55.3 °F /  12.9 °C 30.50in /  1032.7hPa SSE 10.4mph /  16.7km/h   85% 0.00in /  0mm 0.0 W/m2
20:22 59.7 °F /  15.4 °C 55.2 °F /  12.9 °C 30.49in /  1032.4hPa SSE 10.4mph /  16.7km/h   85% 0.00in /  0mm 0.0 W/m2
20:27 59.6 °F /  15.3 °C 55.1 °F /  12.8 °C 30.50in /  1032.7hPa SSE 10.4mph /  16.7km/h   85% 0.00in /  0mm 0.0 W/m2
20:32 59.4 °F /  15.2 °C 55.2 °F /  12.9 °C 30.50in /  1032.7hPa SSE 10.4mph /  16.7km/h   86% 0.00in /  0mm 0.0 W/m2
20:37 59.2 °F /  15.1 °C 55.0 °F /  12.8 °C 30.50in /  1032.7hPa SSE 10.4mph /  16.7km/h   86% 0.00in /  0mm 0.0 W/m2
20:42 59.0 °F /  15 °C 54.8 °F /  12.7 °C 30.50in /  1032.7hPa SSE 10.4mph /  16.7km/h   86% 0.00in /  0mm 0.0 W/m2
20:47 59.0 °F /  15 °C 55.1 °F /  12.8 °C 30.50in /  1032.7hPa SSE 10.4mph /  16.7km/h   87% 0.00in /  0mm 0.0 W/m2
20:52 59.1 °F /  15.1 °C 55.2 °F /  12.9 °C 30.50in /  1032.7hPa SSE 10.4mph /  16.7km/h   87% 0.00in /  0mm 0.0 W/m2
20:57 59.1 °F /  15.1 °C 55.2 °F /  12.9 °C 30.50in /  1032.7hPa SSE 10.4mph /  16.7km/h   87% 0.00in /  0mm 0.0 W/m2
21:02 59.1 °F /  15.1 °C 55.2 °F /  12.9 °C 30.50in /  1032.7hPa SSE 10.4mph /  16.7km/h   87% 0.00in /  0mm 0.0 W/m2
21:07 59.0 °F /  15 °C 55.1 °F /  12.8 °C 30.49in /  1032.4hPa SSE 10.4mph /  16.7km/h   87% 0.00in /  0mm 0.0 W/m2
21:12 58.9 °F /  14.9 °C 55.0 °F /  12.8 °C 30.50in /  1032.7hPa SSE 10.4mph /  16.7km/h   87% 0.00in /  0mm 0.0 W/m2
21:18 58.9 °F /  14.9 °C 55.4 °F /  13 °C 30.50in /  1032.7hPa SSE 10.4mph /  16.7km/h   88% 0.00in /  0mm 0.0 W/m2
21:23 58.9 °F /  14.9 °C 55.4 °F /  13 °C 30.50in /  1032.7hPa SSE 10.4mph /  16.7km/h   88% 0.00in /  0mm 0.0 W/m2
21:28 59.0 °F /  15 °C 55.4 °F /  13 °C 30.49in /  1032.4hPa SSE 10.4mph /  16.7km/h   88% 0.00in /  0mm 0.0 W/m2
21:33 59.1 °F /  15.1 °C 55.5 °F /  13.1 °C 30.49in /  1032.4hPa SSE 10.4mph /  16.7km/h   88% 0.00in /  0mm 0.0 W/m2
21:38 59.1 °F /  15.1 °C 55.5 °F /  13.1 °C 30.49in /  1032.4hPa SSE 10.4mph /  16.7km/h   88% 0.00in /  0mm 0.0 W/m2
21:43 59.2 °F /  15.1 °C 55.6 °F /  13.1 °C 30.50in /  1032.7hPa SSE 10.4mph /  16.7km/h   88% 0.00in /  0mm 0.0 W/m2
21:48 59.3 °F /  15.2 °C 55.7 °F /  13.2 °C 30.50in /  1032.7hPa SSE 10.4mph /  16.7km/h   88% 0.00in /  0mm 0.0 W/m2
21:53 59.3 °F /  15.2 °C 55.7 °F /  13.2 °C 30.50in /  1032.7hPa SSE 10.4mph /  16.7km/h   88% 0.00in /  0mm 0.0 W/m2
21:58 59.1 °F /  15.1 °C 55.2 °F /  12.9 °C 30.50in /  1032.7hPa SSE 10.4mph /  16.7km/h   87% 0.00in /  0mm 0.0 W/m2
22:03 59.0 °F /  15 °C 55.4 °F /  13 °C 30.50in /  1032.7hPa SSE 10.4mph /  16.7km/h   88% 0.00in /  0mm 0.0 W/m2
22:08 59.1 °F /  15.1 °C 55.5 °F /  13.1 °C 30.50in /  1032.7hPa SSE 10.4mph /  16.7km/h   88% 0.00in /  0mm 0.0 W/m2
22:13 59.1 °F /  15.1 °C 55.5 °F /  13.1 °C 30.50in /  1032.7hPa SSE 10.4mph /  16.7km/h   88% 0.00in /  0mm 0.0 W/m2
22:18 59.1 °F /  15.1 °C 55.5 °F /  13.1 °C 30.50in /  1032.7hPa SSE 10.4mph /  16.7km/h   88% 0.00in /  0mm 0.0 W/m2
22:23 58.9 °F /  14.9 °C 55.4 °F /  13 °C 30.50in /  1032.7hPa SSE 10.4mph /  16.7km/h   88% 0.00in /  0mm 0.0 W/m2
22:28 58.8 °F /  14.9 °C 55.3 °F /  12.9 °C 30.50in /  1032.7hPa SSE 10.4mph /  16.7km/h   88% 0.00in /  0mm 0.0 W/m2
22:33 58.7 °F /  14.8 °C 55.2 °F /  12.9 °C 30.50in /  1032.7hPa SSE 10.4mph /  16.7km/h   88% 0.00in /  0mm 0.0 W/m2
22:38 58.7 °F /  14.8 °C 55.2 °F /  12.9 °C 30.50in /  1032.7hPa SSE 10.4mph /  16.7km/h   88% 0.00in /  0mm 0.0 W/m2
22:43 58.5 °F /  14.7 °C 55.0 °F /  12.8 °C 30.50in /  1032.7hPa SSE 10.4mph /  16.7km/h   88% 0.00in /  0mm 0.0 W/m2
22:48 58.2 °F /  14.6 °C 54.7 °F /  12.6 °C 30.50in /  1032.7hPa SSE 10.4mph /  16.7km/h   88% 0.00in /  0mm 0.0 W/m2
22:53 58.0 °F /  14.4 °C 54.5 °F /  12.5 °C 30.50in /  1032.7hPa SSE 10.4mph /  16.7km/h   88% 0.00in /  0mm 0.0 W/m2
22:59 57.8 °F /  14.3 °C 54.3 °F /  12.4 °C 30.49in /  1032.4hPa SSE 10.4mph /  16.7km/h   88% 0.00in /  0mm 0.0 W/m2
23:04 57.7 °F /  14.3 °C 54.5 °F /  12.5 °C 30.50in /  1032.7hPa SSE 10.4mph /  16.7km/h   89% 0.00in /  0mm 0.0 W/m2
23:09 57.5 °F /  14.2 °C 54.3 °F /  12.4 °C 30.49in /  1032.4hPa SSE 10.4mph /  16.7km/h   89% 0.00in /  0mm 0.0 W/m2
23:14 57.3 °F /  14.1 °C 54.1 °F /  12.3 °C 30.49in /  1032.4hPa SSE 10.4mph /  16.7km/h   89% 0.00in /  0mm 0.0 W/m2
23:19 57.2 °F /  14 °C 54.0 °F /  12.2 °C 30.49in /  1032.4hPa SSE 10.4mph /  16.7km/h   89% 0.00in /  0mm 0.0 W/m2
23:24 57.0 °F /  13.9 °C 54.1 °F /  12.3 °C 30.49in /  1032.4hPa SSE 10.4mph /  16.7km/h   90% 0.00in /  0mm 0.0 W/m2
23:29 56.9 °F /  13.8 °C 54.0 °F /  12.2 °C 30.49in /  1032.4hPa SSE 10.4mph /  16.7km/h   90% 0.00in /  0mm 0.0 W/m2
23:34 56.7 °F /  13.7 °C 53.8 °F /  12.1 °C 30.49in /  1032.4hPa SSE 10.4mph /  16.7km/h   90% 0.00in /  0mm 0.0 W/m2
23:39 56.5 °F /  13.6 °C 53.6 °F /  12 °C 30.49in /  1032.4hPa SSE 10.4mph /  16.7km/h   90% 0.00in /  0mm 0.0 W/m2
23:44 56.4 °F /  13.6 °C 53.5 °F /  11.9 °C 30.48in /  1032.1hPa SSE 10.4mph /  16.7km/h   90% 0.00in /  0mm 0.0 W/m2
23:49 56.4 °F /  13.6 °C 53.5 °F /  11.9 °C 30.49in /  1032.4hPa SSE 10.4mph /  16.7km/h   90% 0.00in /  0mm 0.0 W/m2
23:54 56.2 °F /  13.4 °C 53.3 °F /  11.8 °C 30.49in /  1032.4hPa SSE 10.4mph /  16.7km/h   90% 0.00in /  0mm 0.0 W/m2
23:59 56.0 °F /  13.3 °C 53.1 °F /  11.7 °C 30.48in /  1032.1hPa SSE 10.4mph /  16.7km/h   90% 0.00in /  0mm 0.0 W/m2
Piedmont Bend
Compliments of Weather Underground - 4 mb